Terminal Aerodrome Forecast
Issued by NWS

Home | Current Version | Previous Version | Text Only | Print | Product List | Glossary On
Versions: 1 2 3 4 5 6 7 8 9 10 11 12 13 14 15 16 17 18 19 20 21 22
000
FTUS43 KMQT 270845 AAD
TAFIWD
TAF AMD
KIWD 270845Z 2709/2806 VRB03KT P6SM BKN130
      TEMPO 2709/2713 1/2SM FG OVC001
     FM271400 11004KT P6SM BKN130
     FM271800 08005KT P6SM VCSH OVC080
     FM272200 09004KT 5SM -SHRA OVC015
     FM280500 16004KT 5SM BR OVC015=

USA.gov is the U.S. government's official web portal to all federal, state and local government web resources and services.